Albuquerque, NM

9:07 AM MST on January 31, 2015 (GMT -0700)
UNM Area West | Change Station
CLOSE
Current Station
Personal Weather Station
Location: Albuquerque, NM
Elevation: 5133 ft
Nearby Weather Stations

Elev 5133 ft 35.09 °N, 106.63 °W | Updated 14 minutes ago

Snow
Snow
32.8 °F
Feels Like 33 °F
N
0.0
Wind Variable Wind from NW
Gusts 0.0 mph

Today
High -- | Low -- °F
--% Chance of Precip.
Yesterday
High -- | Low -- °F
Precip. -- in
7:06 AM 5:34 PM
Waxing Gibbous, 90% visible
Pressure 29.94 in
Visibility 1.5 miles
Clouds Scattered Clouds 400 ft
Mostly Cloudy 700 ft
Overcast 2200 ft
Windchill 33 °F
Dew Point 32 °F
Humidity 95%
Rainfall 0.11 in
Snow Depth Not available.
UV 0 out of 12
Pollen .50 out of 12
Air Quality Not available.
Flu Activity Not available.
METAR KABQ 311552Z 00000KT 1 1/2SM -RA BR SCT004 BKN007 OVC022 01/00 A2994 RMK AO2 SFC VIS 4 RAB1459E04B23SNE23 SLP139 MTNS OBSC NE-SE P0003 T00060000

More Conditions Fewer Conditions

Pressure 29.94 in
Visibility 1.5 miles
Clouds Scattered Clouds 400 ft
Mostly Cloudy 700 ft
Overcast 2200 ft
Windchill 33 °F
Dew Point 32 °F
Humidity 95%
Rainfall 0.11 in
Snow Depth Not available.
UV 0 out of 12
Pollen .50 out of 12
Air Quality Not available.
Flu Activity Not available.
METAR KABQ 311552Z 00000KT 1 1/2SM -RA BR SCT004 BKN007 OVC022 01/00 A2994 RMK AO2 SFC VIS 4 RAB1459E04B23SNE23 SLP139 MTNS OBSC NE-SE P0003 T00060000

More Conditions Fewer Conditions

Nowcast | as of 7:45 am MST on January 31, 2015

Light to moderate rain and snow will continue across central New Mexico through 930 am. Roads impacted will include Interstate 25 from La Bajada Hill through Glorieta Pass and Highway 285 from Clines Corners to the Colorado border. Expect 1 to 2 inches of additional snow accumulation...with locally higher amounts across the Sandia and Manzano Mountains. Less than 1 inch of accumulation is expected below 7000 feet...and snow will mix with rain at times in these areas. In addition to the precipitation...patchy fog will reduce visibilities below a half mile at times...including around Ruidoso. For the latest Road conditions visit N M roads dot com or dial 5 1 1.

×

10-Day Weather Forecast

Almanac

Astronomy

Jan. 31, 2015 Rise Set
Actual Time
Civil Twilight
Nautical Twilight
Astronomical Twilight
Moon
Length of Visible Light
Length of Day
Tomorrow will be .
, % of the Moon is Illuminated

Today's Extremes

State Highs State Lows

Community

WunderPhotos

Upload Photos

1,792,098 photos uploaded!

WunderBlogs® & News

Nearby

Air Quality

  Air Quality AQ Index Pollutant
Not available.

Snow Depth

Station Depth Elevation

Earthquake Activity

City Distance Mag. Time & Date
Minimum magnitude displayed is 2.5.

Coastal Water Temperatures

Place Temperature

Nearby Weather Stations